PWSweather.com
Personal Weather Stations
Station Observations
KNJOAKLA6
Oakland, NJ 07436

Oakland, NJ 07436

Lat: 41.041, Lon: -74.231

Elevation: 280

Station Type: Davis VP 2

http://stratacolorado.com/oaknjwx/

Latest ConditionsUpdated 4:10:00 AM EDT Tuesday, Jul 26, 2016
Currently Today's Max Today's Min Today's Average
Temperature 67.7°F19.8°C 70.7°F21.5°C 67.7°F19.8°C 69.2°F20.7°C
Dew Point 66.8°F19.3°C 69.8°F21.0°C 66.8°F19.3°C 68.3°F20.2°C
Winds Calm Calm Calm WNWCalm WNW - Calm Calm
Wind Gusts -- 4.0 mph6.4 kmh - -
Humidity 97% 97% 97% 97%
Pressure 29.83 in1010.2 mb 29.85 in1010.8 mb 29.82 in1009.8 mb -
Hour Temp Dew Point Humidity Winds Wind Gusts Pressure Precip Precip Rate Daily Precip Total
04:10 AM 67.7°F19.8°C 66.8°F19.3°C 97% Calm Calm -- 29.83 in1010.2 mb 0.00 in0.0 mm 0.00 in0.0 mm 0.00 in0.0 mm
04:00 AM 67.7°F19.8°C 66.8°F19.3°C 97% Calm Calm 1.0 mph1.6 kmh 29.83 in1010.2 mb 0.00 in0.0 mm 0.00 in0.0 mm 0.00 in0.0 mm
03:50 AM 67.8°F19.9°C 66.9°F19.4°C 97% Calm Calm -- 29.83 in1010.2 mb 0.00 in0.0 mm 0.00 in0.0 mm 0.00 in0.0 mm
03:40 AM 67.9°F19.9°C 67.0°F19.4°C 97% Calm Calm -- 29.83 in1010.2 mb 0.00 in0.0 mm 0.00 in0.0 mm 0.00 in0.0 mm
03:30 AM 68.0°F20.0°C 67.1°F19.5°C 97% Calm Calm -- 29.83 in1010.2 mb 0.00 in0.0 mm 0.00 in0.0 mm 0.00 in0.0 mm
03:20 AM 68.1°F20.1°C 67.2°F19.6°C 97% Calm Calm -- 29.83 in1010.2 mb 0.00 in0.0 mm 0.00 in0.0 mm 0.00 in0.0 mm
03:10 AM 68.3°F20.2°C 67.4°F19.7°C 97% Calm Calm -- 29.83 in1010.2 mb 0.00 in0.0 mm 0.00 in0.0 mm 0.00 in0.0 mm
03:00 AM 68.5°F20.3°C 67.6°F19.8°C 97% Calm Calm -- 29.82 in1009.8 mb 0.00 in0.0 mm 0.00 in0.0 mm 0.00 in0.0 mm
02:50 AM 68.6°F20.3°C 67.7°F19.8°C 97% Calm Calm -- 29.82 in1009.8 mb 0.00 in0.0 mm 0.00 in0.0 mm 0.00 in0.0 mm
02:40 AM 68.7°F20.4°C 67.8°F19.9°C 97% Calm Calm -- 29.83 in1010.2 mb 0.00 in0.0 mm 0.00 in0.0 mm 0.00 in0.0 mm
02:30 AM 68.8°F20.4°C 67.9°F19.9°C 97% Calm Calm -- 29.82 in1009.8 mb 0.00 in0.0 mm 0.00 in0.0 mm 0.00 in0.0 mm
02:20 AM 69.0°F20.6°C 68.1°F20.1°C 97% Calm Calm -- 29.82 in1009.8 mb 0.00 in0.0 mm 0.00 in0.0 mm 0.00 in0.0 mm
02:10 AM 69.2°F20.7°C 68.3°F20.2°C 97% Calm Calm -- 29.82 in1009.8 mb 0.00 in0.0 mm 0.00 in0.0 mm 0.00 in0.0 mm
02:00 AM 69.4°F20.8°C 68.5°F20.3°C 97% Calm Calm -- 29.83 in1010.2 mb 0.00 in0.0 mm 0.00 in0.0 mm 0.00 in0.0 mm
01:50 AM 69.5°F20.8°C 68.6°F20.3°C 97% Calm Calm -- 29.83 in1010.2 mb 0.00 in0.0 mm 0.00 in0.0 mm 0.00 in0.0 mm
01:40 AM 69.6°F20.9°C 68.7°F20.4°C 97% Calm Calm -- 29.83 in1010.2 mb 0.00 in0.0 mm 0.00 in0.0 mm 0.00 in0.0 mm
01:30 AM 69.7°F20.9°C 68.8°F20.4°C 97% Calm Calm 1.0 mph1.6 kmh 29.83 in1010.2 mb 0.00 in0.0 mm 0.00 in0.0 mm 0.00 in0.0 mm
01:20 AM 69.9°F21.1°C 69.0°F20.6°C 97% Calm Calm 1.0 mph1.6 kmh 29.84 in1010.5 mb 0.00 in0.0 mm 0.00 in0.0 mm 0.00 in0.0 mm
01:10 AM 70.0°F21.1°C 69.1°F20.6°C 97% Calm Calm 1.0 mph1.6 kmh 29.84 in1010.5 mb 0.00 in0.0 mm 0.00 in0.0 mm 0.00 in0.0 mm
01:00 AM 70.0°F21.1°C 69.1°F20.6°C 97% Calm Calm 1.0 mph1.6 kmh 29.84 in1010.5 mb 0.00 in0.0 mm 0.00 in0.0 mm 0.00 in0.0 mm
12:50 AM 70.1°F21.2°C 69.2°F20.7°C 97% Calm Calm -- 29.84 in1010.5 mb 0.00 in0.0 mm 0.00 in0.0 mm 0.00 in0.0 mm
12:40 AM 70.2°F21.2°C 69.3°F20.7°C 97% Calm Calm -- 29.84 in1010.5 mb 0.00 in0.0 mm 0.00 in0.0 mm 0.00 in0.0 mm
12:30 AM 70.3°F21.3°C 69.4°F20.8°C 97% Calm Calm 2.0 mph3.2 kmh 29.85 in1010.8 mb 0.00 in0.0 mm 0.00 in0.0 mm 0.00 in0.0 mm
12:20 AM 70.4°F21.3°C 69.5°F20.8°C 97% Calm Calm -- 29.84 in1010.5 mb 0.00 in0.0 mm 0.00 in0.0 mm 0.00 in0.0 mm
12:10 AM 70.6°F21.4°C 69.7°F20.9°C 97% Calm Calm 4.0 mph6.4 kmh 29.84 in1010.5 mb 0.00 in0.0 mm 0.00 in0.0 mm 0.00 in0.0 mm
12:00 AM 70.7°F21.5°C 69.8°F21.0°C 97% Calm Calm -- 29.84 in1010.5 mb 0.00 in0.0 mm 0.00 in0.0 mm 0.00 in0.0 mm